Time;durP1;ratioP1;P1;durP2;ratioP2;P2;SDS_P1;SDS_P2;PMS_P1;PMS_P2;Temp;Humidity;BMP_temperature;BMP_pressure;BME280_temperature;BME280_humidity;BME280_pressure;Samples;Min_cycle;Max_cycle;Signal;HPM_P1;HPM_P2
2024/02/17 00:00:12;;;;;;;17.02;11.38;;;;;;;11.51;86.57;101092.44;2513324;28;20046;-80
2024/02/17 00:01:29;;;;;;;16.17;11.95;;;;;;;11.50;86.72;101094.19;2512238;28;20531;-79
2024/02/17 00:02:43;;;;;;;18.23;12.88;;;;;;;11.48;86.62;101095.94;2507188;28;20043;-79
2024/02/17 00:03:58;;;;;;;16.20;12.15;;;;;;;11.48;86.68;101095.94;2513448;28;20056;-79
2024/02/17 00:05:11;;;;;;;17.58;12.77;;;;;;;11.48;86.64;101103.78;2514027;28;20053;-79
2024/02/17 00:06:26;;;;;;;19.70;12.65;;;;;;;11.49;86.70;101102.06;2513901;28;20054;-80
2024/02/17 00:07:39;;;;;;;19.42;12.18;;;;;;;11.48;86.77;101095.94;2513776;28;20054;-79
2024/02/17 00:08:53;;;;;;;19.80;14.00;;;;;;;11.47;86.72;101102.06;2513168;28;20523;-80
2024/02/17 00:10:07;;;;;;;17.88;13.10;;;;;;;11.46;86.75;101102.94;2507045;28;20515;-79
2024/02/17 00:11:21;;;;;;;21.90;13.27;;;;;;;11.47;86.93;101104.66;2503859;28;20057;-79
2024/02/17 00:12:36;;;;;;;19.23;12.68;;;;;;;11.47;86.84;101106.44;2505774;28;20054;-79
2024/02/17 00:13:50;;;;;;;16.15;11.85;;;;;;;11.48;86.83;101113.38;2513980;28;20054;-79
2024/02/17 00:15:07;;;;;;;23.83;13.27;;;;;;;11.47;86.80;101109.03;2513424;28;20507;-80
2024/02/17 00:16:21;;;;;;;21.60;13.50;;;;;;;11.49;87.05;101112.53;2513273;28;20073;-79
2024/02/17 00:17:34;;;;;;;18.88;13.25;;;;;;;11.49;86.89;101115.13;2511291;28;20170;-79
2024/02/17 00:18:49;;;;;;;17.08;12.98;;;;;;;11.47;86.80;101116.88;2508155;28;20511;-79
2024/02/17 00:20:03;;;;;;;19.25;12.48;;;;;;;11.47;87.02;101115.13;2513187;28;20597;-79
2024/02/17 00:21:17;;;;;;;20.77;14.60;;;;;;;11.47;86.96;101120.34;2507641;28;20078;-79
2024/02/17 00:22:31;;;;;;;25.40;14.95;;;;;;;11.46;86.81;101117.72;2511522;28;20050;-79
2024/02/17 00:23:45;;;;;;;21.23;14.23;;;;;;;11.46;86.79;101117.72;2504024;28;20145;-79
2024/02/17 00:24:59;;;;;;;18.00;14.63;;;;;;;11.46;86.94;101117.72;2509096;28;20042;-79
2024/02/17 00:26:16;;;;;;;20.35;14.27;;;;;;;11.44;86.83;101123.00;2506347;28;20401;-79
2024/02/17 00:27:31;;;;;;;18.20;14.77;;;;;;;11.46;86.97;101128.19;2513635;28;20050;-79
2024/02/17 00:28:44;;;;;;;20.30;15.70;;;;;;;11.45;86.94;101131.69;2512905;28;20050;-79
2024/02/17 00:29:59;;;;;;;18.17;13.25;;;;;;;11.46;86.90;101133.41;2513320;28;20668;-79
2024/02/17 00:31:13;;;;;;;20.08;15.10;;;;;;;11.45;86.93;101129.06;2513874;28;20055;-79
2024/02/17 00:32:28;;;;;;;16.98;14.13;;;;;;;11.44;86.87;101132.59;2512603;28;20046;-79
2024/02/17 00:33:41;;;;;;;22.80;15.93;;;;;;;11.42;86.91;101134.31;2510399;28;20047;-78
2024/02/17 00:34:56;;;;;;;24.00;15.30;;;;;;;11.41;86.97;101129.94;2508407;28;20418;-79
2024/02/17 00:36:09;;;;;;;20.67;13.65;;;;;;;11.41;87.05;101135.19;2513313;28;20054;-79
2024/02/17 00:37:23;;;;;;;23.40;16.20;;;;;;;11.41;87.09;101130.84;2513875;28;20057;-79
2024/02/17 00:38:37;;;;;;;24.90;16.30;;;;;;;11.42;87.13;101131.72;2513781;28;20517;-79
2024/02/17 00:39:50;;;;;;;24.40;16.08;;;;;;;11.40;87.15;101129.09;2513516;28;20050;-79
2024/02/17 00:41:06;;;;;;;20.35;13.93;;;;;;;11.42;87.01;101132.56;2513512;28;20050;-78
2024/02/17 00:42:20;;;;;;;24.25;16.13;;;;;;;11.42;87.10;101131.72;2505196;28;20134;-80
2024/02/17 00:43:34;;;;;;;21.40;15.07;;;;;;;11.41;87.08;101141.31;2513850;28;20066;-79
2024/02/17 00:44:48;;;;;;;26.73;14.98;;;;;;;11.40;87.24;101142.16;2513142;28;20045;-79
2024/02/17 00:46:02;;;;;;;24.58;14.45;;;;;;;11.41;87.11;101145.63;2513401;28;20121;-80
2024/02/17 00:47:17;;;;;;;27.55;15.25;;;;;;;11.41;87.28;101150.88;2513255;28;20054;-79
2024/02/17 00:48:32;;;;;;;25.42;15.57;;;;;;;11.40;87.19;101143.91;2512938;28;20070;-79
2024/02/17 00:49:45;;;;;;;25.13;14.95;;;;;;;11.40;87.25;101150.00;2513262;28;20097;-79
2024/02/17 00:51:00;;;;;;;21.90;15.82;;;;;;;11.39;87.20;101145.66;2513457;28;20090;-79
2024/02/17 00:52:14;;;;;;;17.98;14.00;;;;;;;11.38;87.05;101141.28;2512864;28;20049;-79
2024/02/17 00:53:28;;;;;;;16.92;14.02;;;;;;;11.38;87.15;101156.09;2513284;28;20064;-79
2024/02/17 00:54:41;;;;;;;20.88;16.33;;;;;;;11.35;87.23;101150.00;2513436;28;20058;-79
2024/02/17 00:55:56;;;;;;;28.15;16.85;;;;;;;11.33;87.10;101154.41;2512783;28;20069;-79
2024/02/17 00:57:10;;;;;;;23.33;15.60;;;;;;;11.34;87.22;101161.34;2513303;28;20088;-79
2024/02/17 00:58:24;;;;;;;29.55;16.35;;;;;;;11.33;87.27;101157.00;2505153;28;20046;-79
2024/02/17 00:59:38;;;;;;;26.33;16.55;;;;;;;11.35;87.24;101157.00;2513140;28;20061;-79
2024/02/17 01:00:51;;;;;;;24.15;18.02;;;;;;;11.34;87.17;101160.50;2512967;28;20043;-79
2024/02/17 01:02:06;;;;;;;30.55;18.60;;;;;;;11.32;87.16;101151.78;2513051;28;20171;-77
2024/02/17 01:03:21;;;;;;;26.33;16.80;;;;;;;11.33;87.25;101158.72;2512557;28;20415;-77
2024/02/17 01:04:35;;;;;;;25.92;18.42;;;;;;;11.33;87.25;101167.47;2510577;28;20081;-77
2024/02/17 01:05:49;;;;;;;24.70;18.05;;;;;;;11.31;87.29;101163.97;2506770;28;20046;-77
2024/02/17 01:07:03;;;;;;;27.58;18.92;;;;;;;11.31;87.26;101165.72;2512772;28;20141;-78
2024/02/17 01:08:17;;;;;;;28.13;20.05;;;;;;;11.29;87.22;101168.34;2512241;28;20049;-77
2024/02/17 01:09:31;;;;;;;28.45;20.65;;;;;;;11.28;87.34;101168.31;2504025;28;20051;-78
2024/02/17 01:10:45;;;;;;;30.83;19.55;;;;;;;11.28;87.24;101170.94;2509508;28;20573;-78
2024/02/17 01:11:59;;;;;;;25.90;18.98;;;;;;;11.27;87.32;101164.00;2507317;28;20056;-77
2024/02/17 01:13:13;;;;;;;29.05;19.15;;;;;;;11.27;87.29;101179.66;2512635;28;20093;-77
2024/02/17 01:14:27;;;;;;;33.60;19.35;;;;;;;11.25;87.38;101171.81;2512384;28;20136;-78
2024/02/17 01:15:41;;;;;;;34.42;20.92;;;;;;;11.25;87.39;101187.50;2513054;28;20054;-79
2024/02/17 01:16:55;;;;;;;30.40;20.88;;;;;;;11.24;87.69;101183.16;2512790;28;20050;-79
2024/02/17 01:18:08;;;;;;;31.50;20.00;;;;;;;11.26;87.46;101188.41;2513166;28;20404;-79
2024/02/17 01:19:23;;;;;;;37.78;22.20;;;;;;;11.25;87.55;101187.50;2513262;28;20072;-79
2024/02/17 01:20:38;;;;;;;30.80;23.10;;;;;;;11.26;87.57;101188.41;2512689;28;20522;-79
2024/02/17 01:21:51;;;;;;;34.58;21.17;;;;;;;11.28;87.52;101186.63;2513480;28;20050;-79
2024/02/17 01:23:05;;;;;;;34.58;22.17;;;;;;;11.28;87.70;101192.75;2513427;28;20139;-79
2024/02/17 01:24:19;;;;;;;33.70;22.10;;;;;;;11.29;87.69;101201.44;2505030;28;20047;-80
2024/02/17 01:25:33;;;;;;;39.00;25.33;;;;;;;11.30;87.67;101206.66;2513011;28;20105;-79
2024/02/17 01:26:47;;;;;;;32.83;22.20;;;;;;;11.31;87.57;101208.41;2512930;28;20415;-79
2024/02/17 01:28:01;;;;;;;36.30;24.98;;;;;;;11.30;87.59;101201.41;2507139;28;20047;-79
2024/02/17 01:29:18;;;;;;;36.10;25.35;;;;;;;11.29;87.50;101206.66;2510428;28;20046;-79
2024/02/17 01:30:33;;;;;;;28.50;19.13;;;;;;;11.27;87.47;101204.03;2512545;28;20050;-79
2024/02/17 01:31:46;;;;;;;27.90;20.25;;;;;;;11.26;87.62;101211.91;2512846;28;20480;-80
2024/02/17 01:33:01;;;;;;;34.33;23.13;;;;;;;11.24;87.61;101211.91;2512706;28;20043;-79
2024/02/17 01:34:14;;;;;;;33.80;23.88;;;;;;;11.25;87.69;101207.53;2513212;28;20062;-79
2024/02/17 01:35:30;;;;;;;36.13;24.98;;;;;;;11.25;87.59;101208.41;2512210;28;20072;-78
2024/02/17 01:36:45;;;;;;;40.03;27.35;;;;;;;11.25;87.65;101212.75;2505570;28;20053;-78
2024/02/17 01:38:02;;;;;;;35.33;23.85;;;;;;;11.25;87.71;101217.97;2513040;28;20054;-79
2024/02/17 01:39:15;;;;;;;34.53;25.73;;;;;;;11.24;87.63;101211.91;2513006;28;20145;-79
2024/02/17 01:40:30;;;;;;;38.55;25.77;;;;;;;11.26;87.72;101222.34;2511694;28;20397;-79
2024/02/17 01:41:43;;;;;;;34.63;23.65;;;;;;;11.26;87.78;101222.34;2506005;28;20070;-79
2024/02/17 01:42:58;;;;;;;39.70;24.63;;;;;;;11.26;87.71;101224.97;2508149;28;20495;-79
2024/02/17 01:44:13;;;;;;;40.38;24.23;;;;;;;11.27;87.80;101231.94;2512800;28;20042;-79
2024/02/17 01:45:27;;;;;;;33.50;23.23;;;;;;;11.26;87.83;101224.97;2512331;28;20050;-79
2024/02/17 01:46:41;;;;;;;35.00;23.23;;;;;;;11.26;87.75;101224.97;2512743;28;20423;-79
2024/02/17 01:47:56;;;;;;;34.60;24.27;;;;;;;11.26;87.81;101228.44;2512054;28;20046;-78
2024/02/17 01:49:09;;;;;;;35.38;23.35;;;;;;;11.26;87.92;101230.19;2512736;28;20149;-79
2024/02/17 01:50:24;;;;;;;34.15;20.52;;;;;;;11.25;87.88;101234.53;2513153;28;20050;-79
2024/02/17 01:51:39;;;;;;;31.08;21.15;;;;;;;11.25;87.96;101237.13;2497193;28;20075;-79
2024/02/17 01:52:54;;;;;;;37.60;22.67;;;;;;;11.25;88.07;101234.53;2512324;28;20118;-79
2024/02/17 01:54:08;;;;;;;33.25;20.65;;;;;;;11.26;88.04;101230.19;2513072;28;20524;-79
2024/02/17 01:55:23;;;;;;;31.85;20.20;;;;;;;11.25;87.93;101234.53;2512878;28;20054;-79
2024/02/17 01:56:37;;;;;;;28.98;19.52;;;;;;;11.23;87.95;101231.06;2512494;28;20038;-79
2024/02/17 01:57:51;;;;;;;30.80;20.67;;;;;;;11.24;88.02;101238.03;2509156;28;20774;-79
2024/02/17 01:59:05;;;;;;;30.13;17.55;;;;;;;11.24;87.99;101243.25;2503107;28;20049;-79
2024/02/17 02:00:19;;;;;;;30.48;18.80;;;;;;;11.23;88.15;101244.13;2502658;28;20536;-79
2024/02/17 02:01:35;;;;;;;30.10;18.70;;;;;;;11.23;87.95;101236.31;2504144;28;20057;-79
2024/02/17 02:02:50;;;;;;;23.50;17.15;;;;;;;11.24;88.00;101245.00;2512599;28;20038;-79
2024/02/17 02:04:04;;;;;;;22.33;16.88;;;;;;;11.23;88.02;101241.53;2507330;28;20093;-79
2024/02/17 02:05:19;;;;;;;24.67;15.95;;;;;;;11.22;87.99;101238.91;2510324;28;20109;-78
2024/02/17 02:06:32;;;;;;;22.30;15.73;;;;;;;11.21;88.03;101237.19;2512610;28;20404;-78
2024/02/17 02:07:48;;;;;;;26.73;17.23;;;;;;;11.20;87.92;101251.97;2513191;28;20056;-79
2024/02/17 02:09:01;;;;;;;28.88;16.35;;;;;;;11.19;87.99;101246.75;2512309;28;20495;-79
2024/02/17 02:10:16;;;;;;;29.15;17.98;;;;;;;11.17;87.82;101244.13;2506042;28;20061;-79
2024/02/17 02:11:29;;;;;;;29.05;20.15;;;;;;;11.16;88.10;101250.25;2511239;28;20057;-79
2024/02/17 02:12:45;;;;;;;35.25;18.77;;;;;;;11.16;88.05;101241.53;2504923;28;20504;-79
2024/02/17 02:14:11;;;;;;;33.92;18.77;;;;;;;11.15;88.12;101238.03;2512883;28;20711;-79
2024/02/17 02:15:26;;;;;;;28.23;17.45;;;;;;;11.14;87.97;101244.13;2504354;28;20074;-79
2024/02/17 02:16:40;;;;;;;38.03;19.77;;;;;;;11.12;88.01;101241.50;2512335;28;20085;-79
2024/02/17 02:17:54;;;;;;;30.25;19.50;;;;;;;11.12;87.93;101232.81;2512654;28;20132;-79
2024/02/17 02:19:07;;;;;;;35.60;19.50;;;;;;;11.11;88.13;101244.16;2512369;28;20054;-79
2024/02/17 02:20:24;;;;;;;35.13;21.25;;;;;;;11.13;88.17;101245.03;2512327;28;20482;-79
2024/02/17 02:21:38;;;;;;;29.85;18.55;;;;;;;11.12;88.11;101240.66;2512980;28;20050;-79
2024/02/17 02:22:54;;;;;;;31.30;19.73;;;;;;;11.13;88.21;101250.25;2512740;28;20050;-80
2024/02/17 02:24:07;;;;;;;29.85;19.58;;;;;;;11.12;88.09;101251.09;2512414;28;20054;-80
2024/02/17 02:25:25;;;;;;;30.38;18.00;;;;;;;11.10;88.19;101253.72;2504981;28;20050;-79
2024/02/17 02:26:40;;;;;;;31.75;19.00;;;;;;;11.10;88.24;101245.91;2510654;28;20496;-79
2024/02/17 02:27:55;;;;;;;34.03;18.45;;;;;;;11.08;88.13;101252.84;2506064;28;20487;-79
2024/02/17 02:29:09;;;;;;;32.55;18.15;;;;;;;11.05;88.28;101252.00;2506502;28;20061;-79
2024/02/17 02:30:24;;;;;;;34.72;18.50;;;;;;;11.04;88.23;101255.47;2504071;28;20418;-79
2024/02/17 02:31:37;;;;;;;31.75;20.00;;;;;;;11.03;88.30;101256.34;2511880;28;20076;-79
2024/02/17 02:32:57;;;;;;;37.08;19.27;;;;;;;11.03;88.12;101251.13;2511720;28;20050;-79
2024/02/17 02:34:10;;;;;;;39.60;20.02;;;;;;;11.02;88.29;101259.81;2512160;28;20042;-79
2024/02/17 02:35:25;;;;;;;36.75;19.20;;;;;;;11.01;88.13;101255.47;2511081;28;20515;-79
2024/02/17 02:36:38;;;;;;;40.88;20.52;;;;;;;10.99;88.25;101257.22;2495671;28;20043;-79
2024/02/17 02:37:53;;;;;;;94.43;26.13;;;;;;;10.99;88.32;101262.44;2512289;28;20050;-79
2024/02/17 02:39:06;;;;;;;29.05;16.52;;;;;;;10.97;88.42;101265.06;2512245;28;20046;-79
2024/02/17 02:40:21;;;;;;;31.60;18.00;;;;;;;10.97;88.54;101265.06;2511854;28;20050;-79
2024/02/17 02:41:34;;;;;;;25.38;16.25;;;;;;;10.97;88.47;101269.41;2511779;28;20072;-80
2024/02/17 02:42:50;;;;;;;29.77;17.17;;;;;;;10.97;88.46;101261.56;2507772;28;20050;-79
2024/02/17 02:44:04;;;;;;;34.85;16.63;;;;;;;10.96;88.43;101259.84;2508939;28;20050;-80
2024/02/17 02:45:18;;;;;;;24.20;14.57;;;;;;;10.96;88.25;101270.28;2511573;28;20057;-80
2024/02/17 02:46:35;;;;;;;30.98;16.42;;;;;;;10.95;88.46;101274.63;2506290;28;20054;-79
2024/02/17 02:47:50;;;;;;;28.13;17.35;;;;;;;10.94;88.49;101266.78;2510952;28;20082;-79
2024/02/17 02:49:03;;;;;;;26.83;15.63;;;;;;;10.93;88.57;101267.69;2509824;28;20459;-79
2024/02/17 02:50:18;;;;;;;31.67;17.25;;;;;;;10.93;88.42;101270.28;2507808;28;20050;-79
2024/02/17 02:51:31;;;;;;;30.77;16.75;;;;;;;10.91;88.41;101270.28;2512691;28;20046;-79
2024/02/17 02:52:45;;;;;;;32.88;17.52;;;;;;;10.90;88.45;101269.41;2506386;28;20042;-79
2024/02/17 02:53:59;;;;;;;39.08;18.08;;;;;;;10.90;88.44;101277.25;2513987;28;20042;-79
2024/02/17 02:55:13;;;;;;;35.22;18.42;;;;;;;10.90;88.64;101273.78;2514640;28;20076;-79
2024/02/17 02:56:27;;;;;;;30.35;17.08;;;;;;;10.90;88.57;101269.41;2513550;28;20042;-80
2024/02/17 02:57:41;;;;;;;28.48;17.63;;;;;;;10.89;88.35;101272.91;2514398;28;20055;-79
2024/02/17 02:58:56;;;;;;;35.08;18.25;;;;;;;10.90;88.47;101277.25;2510609;28;20061;-79
2024/02/17 03:00:11;;;;;;;34.88;18.38;;;;;;;10.90;88.77;101279.84;2509915;28;20108;-79
2024/02/17 03:01:24;;;;;;;32.88;18.00;;;;;;;10.93;88.81;101278.13;2506501;28;20066;-80
2024/02/17 03:02:38;;;;;;;37.15;18.92;;;;;;;10.91;88.84;101278.97;2512461;28;20068;-80
2024/02/17 03:03:52;;;;;;;32.33;17.85;;;;;;;10.91;88.79;101278.09;2507430;28;20073;-81
2024/02/17 03:05:07;;;;;;;34.63;18.60;;;;;;;10.91;88.74;101278.97;2509406;28;20059;-80
2024/02/17 03:06:21;;;;;;;36.92;20.25;;;;;;;10.92;88.80;101272.03;2499887;28;20047;-80
2024/02/17 03:07:35;;;;;;;38.20;18.35;;;;;;;10.93;88.75;101276.38;2504534;28;20058;-81
2024/02/17 03:08:49;;;;;;;39.63;19.90;;;;;;;10.94;88.83;101272.00;2511257;28;20055;-80
2024/02/17 03:10:04;;;;;;;40.60;17.42;;;;;;;10.93;88.77;101270.28;2508881;28;20050;-79
2024/02/17 03:11:17;;;;;;;39.95;19.42;;;;;;;10.89;88.79;101275.50;2507362;28;20051;-80
2024/02/17 03:12:31;;;;;;;43.35;19.98;;;;;;;10.87;88.59;101279.00;2511941;28;20458;-80
2024/02/17 03:13:45;;;;;;;38.60;18.25;;;;;;;10.83;88.65;101272.88;2512151;28;20058;-80
2024/02/17 03:15:01;;;;;;;41.22;20.00;;;;;;;10.81;88.60;101277.22;2508827;28;20056;-80
2024/02/17 03:16:22;;;;;;;35.90;19.65;;;;;;;10.79;88.62;101278.09;2513696;28;20042;-80
2024/02/17 03:17:36;;;;;;;41.75;19.52;;;;;;;10.77;88.72;101283.34;2505309;28;20455;-80
2024/02/17 03:18:50;;;;;;;39.65;19.80;;;;;;;10.76;88.65;101280.72;2504688;28;20150;-80
2024/02/17 03:20:05;;;;;;;39.80;18.38;;;;;;;10.78;88.77;101285.06;2508821;28;20057;-80
2024/02/17 03:21:19;;;;;;;35.50;19.50;;;;;;;10.79;88.81;101293.75;2507554;28;20546;-80
2024/02/17 03:22:34;;;;;;;40.88;20.73;;;;;;;10.78;88.83;101298.13;2505145;28;20059;-80
2024/02/17 03:23:48;;;;;;;43.60;20.30;;;;;;;10.78;88.94;101298.13;2514586;28;20050;-80
2024/02/17 03:25:02;;;;;;;42.13;21.55;;;;;;;10.78;89.02;101305.94;2509396;28;20488;-80
2024/02/17 03:26:16;;;;;;;36.38;20.02;;;;;;;10.80;88.76;101308.56;2504241;28;20054;-80
2024/02/17 03:27:30;;;;;;;41.92;21.58;;;;;;;10.81;88.91;101307.69;2504167;28;20050;-80
2024/02/17 03:28:43;;;;;;;52.38;23.40;;;;;;;10.82;88.98;101315.53;2511286;28;20073;-80
2024/02/17 03:29:58;;;;;;;38.13;20.52;;;;;;;10.84;88.99;101312.91;2504416;28;20064;-80
2024/02/17 03:31:13;;;;;;;44.78;19.25;;;;;;;10.85;89.15;101312.06;2504146;28;20050;-80
2024/02/17 03:32:27;;;;;;;44.85;22.05;;;;;;;10.85;89.05;101315.53;2511381;28;20698;-80
2024/02/17 03:33:40;;;;;;;46.28;21.88;;;;;;;10.85;89.20;101320.75;2505813;28;20062;-80
2024/02/17 03:34:55;;;;;;;45.58;21.52;;;;;;;10.86;89.16;101325.09;2504744;28;20060;-79
2024/02/17 03:36:09;;;;;;;44.42;22.17;;;;;;;10.85;89.02;101326.00;2509297;28;24591;-81
2024/02/17 03:37:25;;;;;;;46.90;21.00;;;;;;;10.86;89.12;101334.69;2506809;28;20090;-80
2024/02/17 03:38:38;;;;;;;37.33;20.55;;;;;;;10.85;89.10;101333.81;2512188;28;20046;-79
2024/02/17 03:39:54;;;;;;;45.75;22.23;;;;;;;10.83;89.12;101335.56;2506777;28;20038;-80
2024/02/17 03:41:07;;;;;;;36.10;19.45;;;;;;;10.84;89.13;101342.53;2508809;28;20409;-80
2024/02/17 03:42:21;;;;;;;36.03;18.52;;;;;;;10.84;88.99;101341.63;2510826;28;20056;-80
2024/02/17 03:43:35;;;;;;;40.50;22.13;;;;;;;10.84;89.26;101345.16;2505658;28;20051;-80
2024/02/17 03:44:49;;;;;;;37.42;20.20;;;;;;;10.83;89.05;101340.78;2511059;28;20048;-80
2024/02/17 03:46:03;;;;;;;38.50;21.00;;;;;;;10.82;89.13;101349.50;2508622;28;20061;-80
2024/02/17 03:47:19;;;;;;;37.60;19.95;;;;;;;10.82;89.00;101339.03;2513742;28;20553;-79
2024/02/17 03:48:33;;;;;;;40.60;23.45;;;;;;;10.81;89.07;101347.72;2504922;28;20047;-79
2024/02/17 03:49:48;;;;;;;38.30;21.35;;;;;;;10.81;89.07;101352.94;2511810;28;20047;-80
2024/02/17 03:51:01;;;;;;;37.60;21.08;;;;;;;10.79;89.02;101356.44;2508506;28;20046;-79
2024/02/17 03:52:16;;;;;;;42.80;21.55;;;;;;;10.77;88.86;101356.44;2506938;28;20107;-80
2024/02/17 03:53:29;;;;;;;39.67;22.08;;;;;;;10.76;89.02;101354.69;2511614;28;20058;-80
2024/02/17 03:54:44;;;;;;;41.33;22.00;;;;;;;10.74;89.10;101351.22;2496229;28;20402;-79
2024/02/17 03:55:57;;;;;;;38.28;20.67;;;;;;;10.75;89.02;101352.94;2503709;28;20086;-80
2024/02/17 03:57:13;;;;;;;38.63;21.42;;;;;;;10.74;89.01;101361.66;2509853;28;20359;-79
2024/02/17 03:58:27;;;;;;;36.45;20.92;;;;;;;10.74;89.02;101355.53;2506332;28;20051;-79
2024/02/17 03:59:41;;;;;;;41.30;21.92;;;;;;;10.73;89.15;101367.72;2512037;28;20042;-80
2024/02/17 04:00:54;;;;;;;42.10;22.27;;;;;;;10.72;89.04;101363.41;2506530;28;20423;-80
2024/02/17 04:02:09;;;;;;;43.50;21.70;;;;;;;10.72;89.08;101360.78;2508457;28;20051;-81
2024/02/17 04:03:24;;;;;;;49.90;22.02;;;;;;;10.72;89.11;101368.63;2503959;28;20054;-80
2024/02/17 04:04:38;;;;;;;43.30;22.00;;;;;;;10.73;89.23;101372.94;2504031;28;20038;-80
2024/02/17 04:05:51;;;;;;;41.28;22.85;;;;;;;10.73;89.16;101372.09;2513538;28;20428;-79
2024/02/17 04:07:06;;;;;;;46.83;23.75;;;;;;;10.75;89.28;101370.34;2508997;28;20061;-80
2024/02/17 04:08:19;;;;;;;45.83;22.92;;;;;;;10.74;89.08;101379.03;2503313;28;20047;-80
2024/02/17 04:09:34;;;;;;;44.72;23.88;;;;;;;10.74;89.18;101379.94;2509811;28;20046;-80
2024/02/17 04:10:48;;;;;;;44.65;22.73;;;;;;;10.75;89.34;101378.19;2503321;28;20077;-79
2024/02/17 04:12:02;;;;;;;46.28;22.23;;;;;;;10.73;89.12;101388.63;2502881;28;20043;-80
2024/02/17 04:13:16;;;;;;;48.85;23.98;;;;;;;10.75;89.18;101386.03;2504051;28;20138;-80
2024/02/17 04:14:31;;;;;;;44.13;22.52;;;;;;;10.74;89.28;101385.16;2503549;28;20496;-79
2024/02/17 04:15:44;;;;;;;44.90;22.73;;;;;;;10.76;89.27;101390.38;2503623;28;20054;-80
2024/02/17 04:16:59;;;;;;;45.38;23.42;;;;;;;10.75;89.29;101401.69;2503222;28;20053;-80
2024/02/17 04:18:12;;;;;;;44.88;23.90;;;;;;;10.73;89.19;101391.22;2503725;28;20058;-80
2024/02/17 04:19:28;;;;;;;44.10;24.48;;;;;;;10.73;89.23;101398.19;2503591;28;20057;-80
2024/02/17 04:20:42;;;;;;;52.05;25.83;;;;;;;10.74;89.41;101399.94;2503349;28;20043;-80
2024/02/17 04:21:56;;;;;;;38.05;20.42;;;;;;;10.74;89.29;101397.31;2503512;28;20046;-79
2024/02/17 04:23:10;;;;;;;45.72;24.67;;;;;;;10.73;89.32;101399.06;2503737;28;20074;-80
2024/02/17 04:24:25;;;;;;;45.13;24.60;;;;;;;10.76;89.40;101406.03;2503386;28;20066;-80
2024/02/17 04:25:39;;;;;;;38.88;24.08;;;;;;;10.77;89.30;101407.78;2503792;28;20055;-80
2024/02/17 04:26:54;;;;;;;35.53;21.60;;;;;;;10.77;89.32;101403.44;2503790;28;20054;-80
2024/02/17 04:28:07;;;;;;;40.45;21.52;;;;;;;10.77;89.45;101403.44;2503297;28;20066;-79
2024/02/17 04:29:22;;;;;;;43.10;22.88;;;;;;;10.78;89.28;101404.31;2503954;28;20047;-80
2024/02/17 04:30:35;;;;;;;44.15;21.55;;;;;;;10.77;89.32;101408.66;2503894;28;20423;-80
2024/02/17 04:31:50;;;;;;;39.00;21.85;;;;;;;10.77;89.20;101413.03;2503001;28;20051;-79
2024/02/17 04:33:03;;;;;;;40.08;22.88;;;;;;;10.76;89.25;101416.47;2503426;28;20511;-79
2024/02/17 04:34:18;;;;;;;39.22;23.73;;;;;;;10.76;89.36;101422.56;2503254;28;20051;-79
2024/02/17 04:35:33;;;;;;;42.08;21.95;;;;;;;10.76;89.33;101417.34;2503642;28;20051;-80
2024/02/17 04:36:47;;;;;;;35.03;22.77;;;;;;;10.77;89.44;101420.84;2495404;28;20082;-79
2024/02/17 04:38:01;;;;;;;46.40;24.95;;;;;;;10.77;89.26;101420.84;2503918;28;20047;-79
2024/02/17 04:39:16;;;;;;;36.17;22.63;;;;;;;10.77;89.19;101423.47;2503680;28;20138;-80
2024/02/17 04:40:29;;;;;;;41.45;24.13;;;;;;;10.77;89.28;101429.53;2503205;28;20042;-79
2024/02/17 04:41:43;;;;;;;39.22;23.02;;;;;;;10.77;89.25;101432.16;2503388;28;20053;-80
2024/02/17 04:42:57;;;;;;;45.50;23.60;;;;;;;10.77;89.33;101434.78;2503482;28;20051;-79
2024/02/17 04:44:11;;;;;;;44.15;22.45;;;;;;;10.77;89.39;101437.38;2503021;28;20046;-80
2024/02/17 04:45:25;;;;;;;42.83;24.50;;;;;;;10.79;89.40;101437.38;2503704;28;20097;-80
2024/02/17 04:46:39;;;;;;;43.00;25.40;;;;;;;10.79;89.31;101438.25;2503587;28;20447;-80
2024/02/17 04:47:53;;;;;;;42.78;22.75;;;;;;;10.79;89.38;101438.25;2503721;28;20504;-80
2024/02/17 04:49:07;;;;;;;44.50;25.42;;;;;;;10.79;89.29;101447.81;2504419;28;20061;-79
2024/02/17 04:50:21;;;;;;;41.90;23.77;;;;;;;10.80;89.22;101445.22;2504248;28;20043;-80
2024/02/17 04:51:36;;;;;;;43.42;22.60;;;;;;;10.78;89.27;101448.69;2504036;28;20055;-80
2024/02/17 04:52:50;;;;;;;43.08;25.02;;;;;;;10.78;89.27;101446.09;2503729;28;20057;-80
2024/02/17 04:54:06;;;;;;;38.17;23.15;;;;;;;10.75;89.25;101452.16;2504397;28;20572;-80
2024/02/17 04:55:19;;;;;;;47.10;24.85;;;;;;;10.74;89.10;101450.44;2504232;28;20055;-80
2024/02/17 04:56:34;;;;;;;44.08;23.20;;;;;;;10.73;89.26;101453.88;2503628;28;20043;-80
2024/02/17 04:57:47;;;;;;;40.05;22.50;;;;;;;10.72;89.24;101454.78;2496515;28;20493;-80
2024/02/17 04:59:02;;;;;;;40.88;23.65;;;;;;;10.70;89.12;101457.34;2504085;28;20049;-80
2024/02/17 05:00:16;;;;;;;50.83;25.40;;;;;;;10.67;89.12;101456.50;2503583;28;20086;-80
2024/02/17 05:01:30;;;;;;;44.50;24.42;;;;;;;10.64;89.08;101466.94;2504239;28;20097;-80
2024/02/17 05:02:44;;;;;;;46.15;25.08;;;;;;;10.62;89.12;101463.44;2504027;28;20504;-80
2024/02/17 05:03:59;;;;;;;48.67;26.52;;;;;;;10.61;89.23;101465.19;2506824;28;20069;-80
2024/02/17 05:05:15;;;;;;;52.63;26.35;;;;;;;10.58;89.20;101472.09;2508499;28;20055;-80
2024/02/17 05:06:30;;;;;;;42.65;22.90;;;;;;;10.54;89.09;101471.22;2504074;28;20116;-80
2024/02/17 05:07:45;;;;;;;46.10;24.15;;;;;;;10.51;89.13;101466.00;2505120;28;20050;-80
2024/02/17 05:08:59;;;;;;;50.53;24.35;;;;;;;10.47;88.95;101465.09;2513330;28;20412;-80
2024/02/17 05:10:13;;;;;;;46.40;22.70;;;;;;;10.44;88.91;101477.25;2508168;28;20063;-80
2024/02/17 05:11:27;;;;;;;53.08;23.73;;;;;;;10.38;88.96;101478.13;2503861;28;20092;-80
2024/02/17 05:12:41;;;;;;;57.80;23.83;;;;;;;10.33;88.72;101474.59;2503472;28;20127;-80
2024/02/17 05:13:56;;;;;;;43.17;21.55;;;;;;;10.29;88.65;101479.78;2503836;28;20051;-80
2024/02/17 05:15:10;;;;;;;46.50;22.40;;;;;;;10.24;88.70;101479.72;2503765;28;20137;-80
2024/02/17 05:16:26;;;;;;;49.97;21.85;;;;;;;10.19;88.64;101477.06;2509967;28;20042;-80
2024/02/17 05:17:39;;;;;;;66.13;25.33;;;;;;;10.13;88.52;101477.06;2504764;28;20054;-80
2024/02/17 05:18:53;;;;;;;51.53;22.52;;;;;;;10.08;88.61;101485.72;2506641;28;20054;-79
2024/02/17 05:20:07;;;;;;;53.30;23.77;;;;;;;10.01;88.45;101477.81;2513316;28;20048;-80
2024/02/17 05:21:22;;;;;;;59.05;22.10;;;;;;;9.97;88.54;101483.03;2507429;28;20047;-79
2024/02/17 05:22:37;;;;;;;46.50;21.13;;;;;;;9.92;88.31;101484.72;2503896;28;20066;-80
2024/02/17 05:23:52;;;;;;;52.78;21.73;;;;;;;9.86;88.27;101482.97;2511243;28;20055;-80
2024/02/17 05:25:06;;;;;;;48.05;21.60;;;;;;;9.81;88.24;101484.66;2504128;28;20066;-80
2024/02/17 05:26:21;;;;;;;78.88;25.30;;;;;;;9.75;88.14;101484.59;2503540;28;20588;-80
2024/02/17 05:27:34;;;;;;;69.55;21.95;;;;;;;9.70;88.16;101494.97;2503369;28;20526;-79
2024/02/17 05:28:49;;;;;;;80.57;23.48;;;;;;;9.65;88.24;101493.19;2497330;28;20054;-80
2024/02/17 05:30:03;;;;;;;44.08;19.73;;;;;;;9.58;88.07;101493.16;2510244;28;20043;-80
2024/02/17 05:31:28;;;;;;;45.88;18.33;;;;;;;9.54;88.16;101493.09;2503834;28;20054;-80
2024/02/17 05:32:42;;;;;;;44.70;17.90;;;;;;;9.50;88.39;101499.13;2503686;28;20047;-80
2024/02/17 05:33:57;;;;;;;123.60;25.85;;;;;;;9.47;88.23;101499.97;2513731;28;20058;-79
2024/02/17 05:35:11;;;;;;;58.25;20.25;;;;;;;9.44;88.23;101497.34;2513789;28;20129;-80
2024/02/17 05:36:25;;;;;;;97.22;23.48;;;;;;;9.41;88.27;101499.94;2513196;28;20415;-80
2024/02/17 05:37:39;;;;;;;73.13;24.48;;;;;;;9.37;88.35;101505.94;2513584;28;20061;-80